sensor_id;sensor_type;location;lat;lon;timestamp;pressure;altitude;pressure_sealevel;temperature;humidity
29315;BME280;16320;53.954;9.506;2023-04-09T00:02:49;102582.78;;;6.35;100.00
29315;BME280;16320;53.954;9.506;2023-04-09T00:05:54;102580.16;;;6.38;100.00
29315;BME280;16320;53.954;9.506;2023-04-09T00:08:59;102574.06;;;6.41;100.00
29315;BME280;16320;53.954;9.506;2023-04-09T00:12:04;102578.41;;;6.44;100.00
29315;BME280;16320;53.954;9.506;2023-04-09T00:15:09;102572.28;;;6.43;100.00
29315;BME280;16320;53.954;9.506;2023-04-09T00:18:23;102573.19;;;6.45;100.00
29315;BME280;16320;53.954;9.506;2023-04-09T00:21:28;102576.66;;;6.46;100.00
29315;BME280;16320;53.954;9.506;2023-04-09T00:24:32;102574.91;;;6.45;100.00
29315;BME280;16320;53.954;9.506;2023-04-09T00:27:36;102566.22;;;6.43;100.00
29315;BME280;16320;53.954;9.506;2023-04-09T00:30:41;102569.66;;;6.48;100.00
29315;BME280;16320;53.954;9.506;2023-04-09T00:33:45;102569.66;;;6.51;100.00
29315;BME280;16320;53.954;9.506;2023-04-09T00:36:49;102570.56;;;6.45;100.00
29315;BME280;16320;53.954;9.506;2023-04-09T00:39:54;102572.25;;;6.52;100.00
29315;BME280;16320;53.954;9.506;2023-04-09T00:42:58;102565.28;;;6.56;100.00
29315;BME280;16320;53.954;9.506;2023-04-09T00:46:03;102560.06;;;6.56;100.00
29315;BME280;16320;53.954;9.506;2023-04-09T00:49:08;102564.41;;;6.54;100.00
29315;BME280;16320;53.954;9.506;2023-04-09T00:52:12;102555.75;;;6.52;100.00
29315;BME280;16320;53.954;9.506;2023-04-09T00:55:17;102555.72;;;6.53;100.00
29315;BME280;16320;53.954;9.506;2023-04-09T00:58:24;102550.44;;;6.61;100.00
29315;BME280;16320;53.954;9.506;2023-04-09T01:01:28;102547.88;;;6.56;100.00
29315;BME280;16320;53.954;9.506;2023-04-09T01:04:33;102553.97;;;6.57;100.00
29315;BME280;16320;53.954;9.506;2023-04-09T01:14:56;102554.84;;;6.54;100.00
29315;BME280;16320;53.954;9.506;2023-04-09T01:18:14;102548.78;;;6.51;100.00
29315;BME280;16320;53.954;9.506;2023-04-09T01:21:27;102546.13;;;6.57;100.00
29315;BME280;16320;53.954;9.506;2023-04-09T01:24:50;102553.13;;;6.50;100.00
29315;BME280;16320;53.954;9.506;2023-04-09T01:28:32;102544.38;;;6.57;100.00
29315;BME280;16320;53.954;9.506;2023-04-09T01:31:39;102545.28;;;6.58;100.00
29315;BME280;16320;53.954;9.506;2023-04-09T01:34:47;102541.72;;;6.65;100.00
29315;BME280;16320;53.954;9.506;2023-04-09T01:37:53;102542.66;;;6.56;100.00
29315;BME280;16320;53.954;9.506;2023-04-09T01:40:59;102538.31;;;6.57;100.00
29315;BME280;16320;53.954;9.506;2023-04-09T01:44:05;102545.28;;;6.58;100.00
29315;BME280;16320;53.954;9.506;2023-04-09T01:47:11;102543.50;;;6.60;100.00
29315;BME280;16320;53.954;9.506;2023-04-09T01:50:16;102542.66;;;6.56;100.00
29315;BME280;16320;53.954;9.506;2023-04-09T01:53:21;102546.97;;;6.59;100.00
29315;BME280;16320;53.954;9.506;2023-04-09T01:56:25;102543.47;;;6.66;100.00
29315;BME280;16320;53.954;9.506;2023-04-09T01:59:30;102540.88;;;6.62;100.00
29315;BME280;16320;53.954;9.506;2023-04-09T02:06:21;102542.66;;;6.58;100.00
29315;BME280;16320;53.954;9.506;2023-04-09T02:09:31;102545.28;;;6.55;100.00
29315;BME280;16320;53.954;9.506;2023-04-09T02:12:38;102546.97;;;6.59;100.00
29315;BME280;16320;53.954;9.506;2023-04-09T02:15:45;102551.31;;;6.65;100.00
29315;BME280;16320;53.954;9.506;2023-04-09T02:18:54;102552.16;;;6.68;100.00
29315;BME280;16320;53.954;9.506;2023-04-09T02:22:00;102545.19;;;6.67;100.00
29315;BME280;16320;53.954;9.506;2023-04-09T02:25:07;102546.09;;;6.66;100.00
29315;BME280;16320;53.954;9.506;2023-04-09T02:28:11;102545.19;;;6.70;100.00
29315;BME280;16320;53.954;9.506;2023-04-09T02:31:16;102543.47;;;6.66;100.00
29315;BME280;16320;53.954;9.506;2023-04-09T02:34:20;102538.28;;;6.63;100.00
29315;BME280;16320;53.954;9.506;2023-04-09T02:37:24;102541.72;;;6.70;100.00
29315;BME280;16320;53.954;9.506;2023-04-09T02:40:29;102544.34;;;6.67;100.00
29315;BME280;16320;53.954;9.506;2023-04-09T02:43:33;102539.94;;;6.70;100.00
29315;BME280;16320;53.954;9.506;2023-04-09T02:46:39;102534.69;;;6.76;100.00
29315;BME280;16320;53.954;9.506;2023-04-09T02:49:44;102539.97;;;6.67;100.00
29315;BME280;16320;53.954;9.506;2023-04-09T02:52:48;102534.75;;;6.67;100.00
29315;BME280;16320;53.954;9.506;2023-04-09T02:55:53;102532.09;;;6.72;100.00
29315;BME280;16320;53.954;9.506;2023-04-09T02:58:57;102531.25;;;6.71;100.00
29315;BME280;16320;53.954;9.506;2023-04-09T03:02:01;102519.94;;;6.69;100.00
29315;BME280;16320;53.954;9.506;2023-04-09T03:05:06;102522.56;;;6.68;100.00
29315;BME280;16320;53.954;9.506;2023-04-09T03:08:10;102527.81;;;6.68;100.00
29315;BME280;16320;53.954;9.506;2023-04-09T03:11:15;102519.03;;;6.73;100.00
29315;BME280;16320;53.954;9.506;2023-04-09T03:14:19;102519.06;;;6.70;100.00
29315;BME280;16320;53.954;9.506;2023-04-09T03:17:23;102522.53;;;6.72;100.00
29315;BME280;16320;53.954;9.506;2023-04-09T03:20:30;102522.50;;;6.75;100.00
29315;BME280;16320;53.954;9.506;2023-04-09T03:23:34;102526.06;;;6.67;100.00
29315;BME280;16320;53.954;9.506;2023-04-09T03:26:40;102519.94;;;6.69;100.00
29315;BME280;16320;53.954;9.506;2023-04-09T03:29:45;102514.69;;;6.71;100.00
29315;BME280;16320;53.954;9.506;2023-04-09T03:32:49;102517.28;;;6.75;100.00
29315;BME280;16320;53.954;9.506;2023-04-09T03:35:53;102515.59;;;6.68;100.00
29315;BME280;16320;53.954;9.506;2023-04-09T03:38:58;102514.75;;;6.66;100.00
29315;BME280;16320;53.954;9.506;2023-04-09T03:42:03;102511.25;;;6.66;100.00
29315;BME280;16320;53.954;9.506;2023-04-09T03:45:08;102504.31;;;6.66;100.00
29315;BME280;16320;53.954;9.506;2023-04-09T03:48:12;102513.84;;;6.67;100.00
29315;BME280;16320;53.954;9.506;2023-04-09T03:51:17;102516.47;;;6.67;100.00
29315;BME280;16320;53.954;9.506;2023-04-09T03:54:21;102518.22;;;6.67;100.00
29315;BME280;16320;53.954;9.506;2023-04-09T03:57:26;102516.47;;;6.67;100.00
29315;BME280;16320;53.954;9.506;2023-04-09T04:00:31;102513.03;;;6.59;100.00
29315;BME280;16320;53.954;9.506;2023-04-09T04:03:36;102516.50;;;6.63;100.00
29315;BME280;16320;53.954;9.506;2023-04-09T04:06:41;102515.63;;;6.65;100.00
29315;BME280;16320;53.954;9.506;2023-04-09T04:09:45;102509.53;;;6.63;100.00
29315;BME280;16320;53.954;9.506;2023-04-09T04:12:49;102518.22;;;6.65;100.00
29315;BME280;16320;53.954;9.506;2023-04-09T04:15:53;102517.38;;;6.63;100.00
29315;BME280;16320;53.954;9.506;2023-04-09T04:18:58;102518.25;;;6.60;100.00
29315;BME280;16320;53.954;9.506;2023-04-09T04:22:02;102514.78;;;6.63;100.00
29315;BME280;16320;53.954;9.506;2023-04-09T04:25:07;102513.00;;;6.64;100.00
29315;BME280;16320;53.954;9.506;2023-04-09T04:28:12;102509.47;;;6.69;100.00
29315;BME280;16320;53.954;9.506;2023-04-09T04:31:16;102514.75;;;6.68;100.00
29315;BME280;16320;53.954;9.506;2023-04-09T04:34:20;102517.38;;;6.65;100.00
29315;BME280;16320;53.954;9.506;2023-04-09T04:37:25;102517.28;;;6.72;100.00
29315;BME280;16320;53.954;9.506;2023-04-09T04:40:29;102519.97;;;6.68;100.00
29315;BME280;16320;53.954;9.506;2023-04-09T04:43:34;102521.69;;;6.69;100.00
29315;BME280;16320;53.954;9.506;2023-04-09T04:46:38;102524.28;;;6.67;100.00
29315;BME280;16320;53.954;9.506;2023-04-09T04:49:42;102526.00;;;6.77;100.00
29315;BME280;16320;53.954;9.506;2023-04-09T04:52:47;102526.88;;;6.73;100.00
29315;BME280;16320;53.954;9.506;2023-04-09T04:55:52;102524.25;;;6.73;100.00
29315;BME280;16320;53.954;9.506;2023-04-09T04:58:56;102526.03;;;6.73;100.00
29315;BME280;16320;53.954;9.506;2023-04-09T05:02:00;102520.78;;;6.74;100.00
29315;BME280;16320;53.954;9.506;2023-04-09T05:05:06;102535.56;;;6.75;100.00
29315;BME280;16320;53.954;9.506;2023-04-09T05:08:10;102531.16;;;6.81;100.00
29315;BME280;16320;53.954;9.506;2023-04-09T05:11:15;102530.31;;;6.77;100.00
29315;BME280;16320;53.954;9.506;2023-04-09T05:14:20;102528.66;;;6.70;100.00
29315;BME280;16320;53.954;9.506;2023-04-09T05:17:24;102528.66;;;6.70;100.00
29315;BME280;16320;53.954;9.506;2023-04-09T05:20:29;102536.47;;;6.71;100.00
29315;BME280;16320;53.954;9.506;2023-04-09T05:23:33;102538.22;;;6.69;100.00
29315;BME280;16320;53.954;9.506;2023-04-09T05:26:38;102536.47;;;6.74;100.00
29315;BME280;16320;53.954;9.506;2023-04-09T05:29:42;102532.97;;;6.72;100.00
29315;BME280;16320;53.954;9.506;2023-04-09T05:32:46;102549.53;;;6.74;100.00
29315;BME280;16320;53.954;9.506;2023-04-09T05:35:51;102544.31;;;6.73;100.00
29315;BME280;16320;53.954;9.506;2023-04-09T05:38:55;102547.75;;;6.80;100.00
29315;BME280;16320;53.954;9.506;2023-04-09T05:42:00;102541.59;;;6.85;100.00
29315;BME280;16320;53.954;9.506;2023-04-09T05:45:05;102544.19;;;6.88;100.00
29315;BME280;16320;53.954;9.506;2023-04-09T05:48:10;102555.59;;;6.78;100.00
29315;BME280;16320;53.954;9.506;2023-04-09T05:51:14;102559.91;;;6.79;100.00
29315;BME280;16320;53.954;9.506;2023-04-09T05:54:18;102564.25;;;6.82;100.00
29315;BME280;16320;53.954;9.506;2023-04-09T05:57:23;102565.13;;;6.82;100.00
29315;BME280;16320;53.954;9.506;2023-04-09T06:00:27;102556.41;;;6.85;100.00
29315;BME280;16320;53.954;9.506;2023-04-09T06:03:32;102562.44;;;6.94;100.00
29315;BME280;16320;53.954;9.506;2023-04-09T06:06:37;102552.00;;;6.90;100.00
29315;BME280;16320;53.954;9.506;2023-04-09T06:09:41;102564.16;;;6.97;100.00
29315;BME280;16320;53.954;9.506;2023-04-09T06:12:49;102558.97;;;6.92;100.00
29315;BME280;16320;53.954;9.506;2023-04-09T06:15:53;102553.78;;;6.88;100.00
29315;BME280;16320;53.954;9.506;2023-04-09T06:18:58;102562.44;;;6.93;100.00
29315;BME280;16320;53.954;9.506;2023-04-09T06:22:02;102558.09;;;6.92;100.00
29315;BME280;16320;53.954;9.506;2023-04-09T06:25:06;102559.84;;;6.90;100.00
29315;BME280;16320;53.954;9.506;2023-04-09T06:28:11;102566.72;;;7.02;100.00
29315;BME280;16320;53.954;9.506;2023-04-09T06:31:15;102559.75;;;7.05;100.00
29315;BME280;16320;53.954;9.506;2023-04-09T06:34:20;102562.34;;;7.08;100.00
29315;BME280;16320;53.954;9.506;2023-04-09T06:37:24;102563.22;;;7.06;100.00
29315;BME280;16320;53.954;9.506;2023-04-09T06:40:28;102561.56;;;6.97;100.00
29315;BME280;16320;53.954;9.506;2023-04-09T06:43:33;102566.69;;;7.06;100.00
29315;BME280;16320;53.954;9.506;2023-04-09T06:46:37;102568.44;;;7.07;100.00
29315;BME280;16320;53.954;9.506;2023-04-09T06:49:42;102564.88;;;7.16;100.00
29315;BME280;16320;53.954;9.506;2023-04-09T06:52:46;102564.81;;;7.25;100.00
29315;BME280;16320;53.954;9.506;2023-04-09T06:55:51;102563.84;;;7.36;100.00
29315;BME280;16320;53.954;9.506;2023-04-09T06:58:55;102566.31;;;7.53;100.00
29315;BME280;16320;53.954;9.506;2023-04-09T07:01:59;102570.66;;;7.52;100.00
29315;BME280;16320;53.954;9.506;2023-04-09T07:05:05;102568.94;;;7.53;100.00
29315;BME280;16320;53.954;9.506;2023-04-09T07:08:09;102575.88;;;7.54;100.00
29315;BME280;16320;53.954;9.506;2023-04-09T07:11:14;102576.78;;;7.53;100.00
29315;BME280;16320;53.954;9.506;2023-04-09T07:14:20;102574.94;;;7.62;100.00
29315;BME280;16320;53.954;9.506;2023-04-09T07:17:24;102581.09;;;7.57;100.00
29315;BME280;16320;53.954;9.506;2023-04-09T07:20:29;102579.22;;;7.68;100.00
29315;BME280;16320;53.954;9.506;2023-04-09T07:23:34;102574.94;;;7.64;100.00
29315;BME280;16320;53.954;9.506;2023-04-09T07:26:41;102572.28;;;7.68;100.00
29315;BME280;16320;53.954;9.506;2023-04-09T07:29:47;102592.19;;;7.82;100.00
29315;BME280;16320;53.954;9.506;2023-04-09T07:32:51;102578.22;;;7.83;100.00
29315;BME280;16320;53.954;9.506;2023-04-09T07:35:56;102584.31;;;7.83;100.00
29315;BME280;16320;53.954;9.506;2023-04-09T07:39:01;102580.84;;;7.81;100.00
29315;BME280;16320;53.954;9.506;2023-04-09T07:42:05;102586.84;;;7.91;100.00
29315;BME280;16320;53.954;9.506;2023-04-09T07:45:09;102590.44;;;7.82;100.00
29315;BME280;16320;53.954;9.506;2023-04-09T07:48:14;102592.97;;;7.92;100.00
29315;BME280;16320;53.954;9.506;2023-04-09T07:51:18;102589.38;;;7.99;100.00
29315;BME280;16320;53.954;9.506;2023-04-09T07:54:23;102589.41;;;7.97;100.00
29315;BME280;16320;53.954;9.506;2023-04-09T07:57:30;102593.59;;;8.12;100.00
29315;BME280;16320;53.954;9.506;2023-04-09T08:00:36;102587.44;;;8.16;100.00
29315;BME280;16320;53.954;9.506;2023-04-09T08:03:40;102578.78;;;8.11;100.00
29315;BME280;16320;53.954;9.506;2023-04-09T08:06:45;102578.75;;;8.14;100.00
29315;BME280;16320;53.954;9.506;2023-04-09T08:09:54;102574.25;;;8.25;100.00
29315;BME280;16320;53.954;9.506;2023-04-09T08:12:58;102569.91;;;8.24;100.00
29315;BME280;16320;53.954;9.506;2023-04-09T08:16:02;102570.78;;;8.22;100.00
29315;BME280;16320;53.954;9.506;2023-04-09T08:19:08;102574.09;;;8.36;100.00
29315;BME280;16320;53.954;9.506;2023-04-09T08:22:12;102575.81;;;8.40;100.00
29315;BME280;16320;53.954;9.506;2023-04-09T08:25:16;102572.38;;;8.37;100.00
29315;BME280;16320;53.954;9.506;2023-04-09T08:28:21;102571.44;;;8.41;100.00
29315;BME280;16320;53.954;9.506;2023-04-09T08:31:26;102571.41;;;8.44;100.00
29315;BME280;16320;53.954;9.506;2023-04-09T08:34:30;102572.34;;;8.40;100.00
29315;BME280;16320;53.954;9.506;2023-04-09T08:37:35;102574.00;;;8.47;100.00
29315;BME280;16320;53.954;9.506;2023-04-09T08:40:39;102566.22;;;8.38;100.00
29315;BME280;16320;53.954;9.506;2023-04-09T08:43:46;102562.59;;;8.51;100.00
29315;BME280;16320;53.954;9.506;2023-04-09T08:47:07;102571.22;;;8.59;100.00
29315;BME280;16320;53.954;9.506;2023-04-09T08:50:14;102559.09;;;8.52;100.00
29315;BME280;16320;53.954;9.506;2023-04-09T08:53:19;102547.59;;;8.61;100.00
29315;BME280;16320;53.954;9.506;2023-04-09T08:56:25;102554.47;;;8.70;100.00
29315;BME280;16320;53.954;9.506;2023-04-09T08:59:30;102550.13;;;8.69;100.00
29315;BME280;16320;53.954;9.506;2023-04-09T09:02:34;102547.34;;;8.79;100.00
29315;BME280;16320;53.954;9.506;2023-04-09T09:05:41;102539.38;;;8.87;100.00
29315;BME280;16320;53.954;9.506;2023-04-09T09:09:00;102537.69;;;8.83;100.00
29315;BME280;16320;53.954;9.506;2023-04-09T09:12:05;102535.84;;;8.88;100.00
29315;BME280;16320;53.954;9.506;2023-04-09T09:15:28;102539.25;;;8.93;100.00
29315;BME280;16320;53.954;9.506;2023-04-09T09:18:41;102525.13;;;9.04;100.00
29315;BME280;16320;53.954;9.506;2023-04-09T09:21:59;102530.28;;;9.10;100.00
29315;BME280;16320;53.954;9.506;2023-04-09T09:25:12;102531.84;;;9.20;100.00
29315;BME280;16320;53.954;9.506;2023-04-09T09:28:16;102528.34;;;9.21;100.00
29315;BME280;16320;53.954;9.506;2023-04-09T09:31:21;102533.47;;;9.27;100.00
29315;BME280;16320;53.954;9.506;2023-04-09T09:34:26;102518.50;;;9.32;100.00
29315;BME280;16320;53.954;9.506;2023-04-09T09:37:30;102524.66;;;9.31;100.00
29315;BME280;16320;53.954;9.506;2023-04-09T09:40:35;102532.41;;;9.39;100.00
29315;BME280;16320;53.954;9.506;2023-04-09T09:43:40;102521.88;;;9.41;100.00
29315;BME280;16320;53.954;9.506;2023-04-09T09:46:47;102520.94;;;9.45;100.00
29315;BME280;16320;53.954;9.506;2023-04-09T09:49:51;102524.56;;;9.38;100.00
29315;BME280;16320;53.954;9.506;2023-04-09T09:53:05;102518.28;;;9.46;100.00
29315;BME280;16320;53.954;9.506;2023-04-09T09:56:15;102522.72;;;9.43;100.00
29315;BME280;16320;53.954;9.506;2023-04-09T09:59:22;102519.19;;;9.44;100.00
29315;BME280;16320;53.954;9.506;2023-04-09T10:02:38;102512.28;;;9.40;100.00
29315;BME280;16320;53.954;9.506;2023-04-09T10:05:48;102509.66;;;9.40;100.00
29315;BME280;16320;53.954;9.506;2023-04-09T10:08:57;102506.28;;;9.33;100.00
29315;BME280;16320;53.954;9.506;2023-04-09T10:12:06;102498.44;;;9.31;100.00
29315;BME280;16320;53.954;9.506;2023-04-09T10:15:12;102499.31;;;9.32;100.00
29315;BME280;16320;53.954;9.506;2023-04-09T10:18:17;102502.66;;;9.40;100.00
29315;BME280;16320;53.954;9.506;2023-04-09T10:24:33;102503.00;;;9.20;100.00
29315;BME280;16320;53.954;9.506;2023-04-09T10:27:38;102508.38;;;9.12;100.00
29315;BME280;16320;53.954;9.506;2023-04-09T10:30:42;102504.94;;;9.10;100.00
29315;BME280;16320;53.954;9.506;2023-04-09T10:33:49;102501.38;;;9.13;100.00
29315;BME280;16320;53.954;9.506;2023-04-09T10:36:58;102513.50;;;9.20;100.00
29315;BME280;16320;53.954;9.506;2023-04-09T10:40:02;102498.59;;;9.22;100.00
29315;BME280;16320;53.954;9.506;2023-04-09T10:43:08;102495.09;;;9.23;100.00
29315;BME280;16320;53.954;9.506;2023-04-09T10:46:35;102508.78;;;9.41;100.00
29315;BME280;16320;53.954;9.506;2023-04-09T10:49:41;102502.84;;;9.31;100.00
29315;BME280;16320;53.954;9.506;2023-04-09T10:52:46;102499.34;;;9.29;100.00
29315;BME280;16320;53.954;9.506;2023-04-09T10:55:55;102502.13;;;9.21;100.00
29315;BME280;16320;53.954;9.506;2023-04-09T10:58:59;102495.91;;;9.27;100.00
29315;BME280;16320;53.954;9.506;2023-04-09T11:02:09;102498.66;;;9.19;100.00
29315;BME280;16320;53.954;9.506;2023-04-09T11:08:36;102490.47;;;9.38;100.00
29315;BME280;16320;53.954;9.506;2023-04-09T11:11:42;102485.72;;;9.57;100.00
29315;BME280;16320;53.954;9.506;2023-04-09T11:14:46;102479.44;;;9.65;100.00
29315;BME280;16320;53.954;9.506;2023-04-09T11:17:51;102460.09;;;9.69;100.00
29315;BME280;16320;53.954;9.506;2023-04-09T11:21:00;102457.38;;;9.76;100.00
29315;BME280;16320;53.954;9.506;2023-04-09T11:24:06;102445.97;;;9.77;100.00
29315;BME280;16320;53.954;9.506;2023-04-09T11:27:10;102448.56;;;9.80;100.00
29315;BME280;16320;53.954;9.506;2023-04-09T11:30:14;102448.41;;;9.86;100.00
29315;BME280;16320;53.954;9.506;2023-04-09T11:33:19;102432.66;;;9.86;100.00
29315;BME280;16320;53.954;9.506;2023-04-09T11:36:25;102438.78;;;9.86;100.00
29315;BME280;16320;53.954;9.506;2023-04-09T11:39:31;102435.34;;;9.83;100.00
29315;BME280;16320;53.954;9.506;2023-04-09T11:42:35;102447.44;;;9.90;100.00
29315;BME280;16320;53.954;9.506;2023-04-09T11:45:41;102444.50;;;10.04;100.00
29315;BME280;16320;53.954;9.506;2023-04-09T11:48:46;102435.66;;;10.10;100.00
29315;BME280;16320;53.954;9.506;2023-04-09T11:51:50;102437.25;;;10.15;100.00
29315;BME280;16320;53.954;9.506;2023-04-09T11:54:59;102432.84;;;10.17;100.00
29315;BME280;16320;53.954;9.506;2023-04-09T11:58:04;102428.59;;;10.12;100.00
29315;BME280;16320;53.954;9.506;2023-04-09T12:01:09;102425.91;;;10.15;100.00
29315;BME280;16320;53.954;9.506;2023-04-09T12:04:19;102418.81;;;10.18;100.00
29315;BME280;16320;53.954;9.506;2023-04-09T12:07:32;102419.81;;;10.13;100.00
29315;BME280;16320;53.954;9.506;2023-04-09T12:10:37;102416.16;;;10.20;100.00
29315;BME280;16320;53.954;9.506;2023-04-09T12:13:42;102419.66;;;10.20;100.00
29315;BME280;16320;53.954;9.506;2023-04-09T12:16:51;102424.25;;;10.11;100.00
29315;BME280;16320;53.954;9.506;2023-04-09T12:19:56;102416.66;;;9.98;100.00
29315;BME280;16320;53.954;9.506;2023-04-09T12:23:03;102423.47;;;10.05;100.00
29315;BME280;16320;53.954;9.506;2023-04-09T12:26:08;102414.84;;;10.00;100.00
29315;BME280;16320;53.954;9.506;2023-04-09T12:29:19;102425.41;;;9.97;100.00
29315;BME280;16320;53.954;9.506;2023-04-09T12:32:24;102428.66;;;10.08;100.00
29315;BME280;16320;53.954;9.506;2023-04-09T12:35:29;102433.78;;;10.15;100.00
29315;BME280;16320;53.954;9.506;2023-04-09T12:38:34;102433.50;;;10.27;100.00
29315;BME280;16320;53.954;9.506;2023-04-09T12:41:38;102439.81;;;10.18;100.00
29315;BME280;16320;53.954;9.506;2023-04-09T12:44:42;102430.25;;;10.16;100.00
29315;BME280;16320;53.954;9.506;2023-04-09T12:47:47;102427.53;;;10.20;100.00
29315;BME280;16320;53.954;9.506;2023-04-09T12:50:52;102431.03;;;10.21;100.00
29315;BME280;16320;53.954;9.506;2023-04-09T12:53:56;102437.78;;;10.31;100.00
29315;BME280;16320;53.954;9.506;2023-04-09T12:57:01;102432.53;;;10.33;100.00
29315;BME280;16320;53.954;9.506;2023-04-09T13:00:06;102434.91;;;10.43;100.00
29315;BME280;16320;53.954;9.506;2023-04-09T13:03:11;102426.03;;;10.48;100.00
29315;BME280;16320;53.954;9.506;2023-04-09T13:06:16;102425.03;;;10.53;100.00
29315;BME280;16320;53.954;9.506;2023-04-09T13:09:21;102415.47;;;10.51;100.00
29315;BME280;16320;53.954;9.506;2023-04-09T13:12:26;102400.53;;;10.53;100.00
29315;BME280;16320;53.954;9.506;2023-04-09T13:15:30;102392.72;;;10.50;100.00
29315;BME280;16320;53.954;9.506;2023-04-09T13:18:35;102395.19;;;10.56;100.00
29315;BME280;16320;53.954;9.506;2023-04-09T13:21:40;102402.78;;;10.68;100.00
29315;BME280;16320;53.954;9.506;2023-04-09T13:24:45;102394.31;;;10.90;100.00
29315;BME280;16320;53.954;9.506;2023-04-09T13:27:49;102378.72;;;11.16;100.00
29315;BME280;16320;53.954;9.506;2023-04-09T13:30:54;102375.25;;;11.46;100.00
29315;BME280;16320;53.954;9.506;2023-04-09T13:33:59;102346.00;;;11.85;100.00
29315;BME280;16320;53.954;9.506;2023-04-09T13:37:04;102351.56;;;12.32;100.00
29315;BME280;16320;53.954;9.506;2023-04-09T13:40:09;102333.47;;;12.48;100.00
29315;BME280;16320;53.954;9.506;2023-04-09T13:43:14;102333.56;;;12.95;100.00
29315;BME280;16320;53.954;9.506;2023-04-09T13:46:18;102327.03;;;13.06;100.00
29315;BME280;16320;53.954;9.506;2023-04-09T13:49:22;102323.03;;;12.95;100.00
29315;BME280;16320;53.954;9.506;2023-04-09T13:52:27;102313.06;;;13.04;100.00
29315;BME280;16320;53.954;9.506;2023-04-09T13:55:32;102309.50;;;13.05;100.00
29315;BME280;16320;53.954;9.506;2023-04-09T13:58:37;102312.53;;;12.69;100.00
29315;BME280;16320;53.954;9.506;2023-04-09T14:01:42;102297.78;;;12.88;100.00
29315;BME280;16320;53.954;9.506;2023-04-09T14:04:46;102294.56;;;12.80;100.00
29315;BME280;16320;53.954;9.506;2023-04-09T14:07:51;102290.16;;;13.04;100.00
29315;BME280;16320;53.954;9.506;2023-04-09T14:10:55;102287.00;;;12.94;100.00
29315;BME280;16320;53.954;9.506;2023-04-09T14:13:59;102288.03;;;13.14;100.00
29315;BME280;16320;53.954;9.506;2023-04-09T14:17:05;102296.72;;;13.41;100.00
29315;BME280;16320;53.954;9.506;2023-04-09T14:20:09;102297.69;;;13.39;100.00
29315;BME280;16320;53.954;9.506;2023-04-09T14:23:14;102290.03;;;13.32;100.00
29315;BME280;16320;53.954;9.506;2023-04-09T14:26:18;102284.81;;;13.53;100.00
29315;BME280;16320;53.954;9.506;2023-04-09T14:29:26;102283.00;;;13.77;100.00
29315;BME280;16320;53.954;9.506;2023-04-09T14:32:30;102277.34;;;13.86;100.00
29315;BME280;16320;53.954;9.506;2023-04-09T14:35:35;102276.50;;;14.06;100.00
29315;BME280;16320;53.954;9.506;2023-04-09T14:38:39;102268.88;;;14.41;100.00
29315;BME280;16320;53.954;9.506;2023-04-09T14:41:44;102262.22;;;14.74;100.00
29315;BME280;16320;53.954;9.506;2023-04-09T14:44:48;102247.34;;;15.09;100.00
29315;BME280;16320;53.954;9.506;2023-04-09T14:47:53;102235.06;;;15.08;100.00
29315;BME280;16320;53.954;9.506;2023-04-09T14:50:58;102230.09;;;14.81;100.00
29315;BME280;16320;53.954;9.506;2023-04-09T14:54:02;102228.53;;;14.77;100.00
29315;BME280;16320;53.954;9.506;2023-04-09T14:57:07;102236.44;;;14.98;100.00
29315;BME280;16320;53.954;9.506;2023-04-09T15:00:12;102221.72;;;15.29;100.00
29315;BME280;16320;53.954;9.506;2023-04-09T15:03:16;102214.78;;;15.45;100.00
29315;BME280;16320;53.954;9.506;2023-04-09T15:06:21;102208.47;;;15.48;100.00
29315;BME280;16320;53.954;9.506;2023-04-09T15:09:26;102206.38;;;15.54;100.00
29315;BME280;16320;53.954;9.506;2023-04-09T15:12:31;102213.50;;;15.35;100.00
29315;BME280;16320;53.954;9.506;2023-04-09T15:15:39;102210.97;;;15.14;100.00
29315;BME280;16320;53.954;9.506;2023-04-09T15:18:43;102204.59;;;14.80;100.00
29315;BME280;16320;53.954;9.506;2023-04-09T15:21:49;102208.16;;;14.59;100.00
29315;BME280;16320;53.954;9.506;2023-04-09T15:24:53;102205.16;;;14.48;100.00
29315;BME280;16320;53.954;9.506;2023-04-09T15:27:58;102209.22;;;14.15;100.00
29315;BME280;16320;53.954;9.506;2023-04-09T15:31:03;102213.97;;;14.07;100.00
29315;BME280;16320;53.954;9.506;2023-04-09T15:34:07;102213.25;;;14.24;100.00
29315;BME280;16320;53.954;9.506;2023-04-09T15:37:11;102208.94;;;14.81;100.00
29315;BME280;16320;53.954;9.506;2023-04-09T15:40:17;102197.34;;;15.22;100.00
29315;BME280;16320;53.954;9.506;2023-04-09T15:43:22;102198.94;;;15.26;100.00
29315;BME280;16320;53.954;9.506;2023-04-09T15:46:27;102194.66;;;14.86;100.00
29315;BME280;16320;53.954;9.506;2023-04-09T15:49:34;102193.31;;;14.56;100.00
29315;BME280;16320;53.954;9.506;2023-04-09T15:52:40;102189.75;;;14.57;100.00
29315;BME280;16320;53.954;9.506;2023-04-09T15:55:44;102188.19;;;14.33;100.00
29315;BME280;16320;53.954;9.506;2023-04-09T15:58:49;102187.47;;;13.88;100.00
29315;BME280;16320;53.954;9.506;2023-04-09T16:01:53;102193.50;;;13.49;100.00
29315;BME280;16320;53.954;9.506;2023-04-09T16:04:57;102204.41;;;13.40;100.00
29315;BME280;16320;53.954;9.506;2023-04-09T16:08:02;102212.84;;;13.26;100.00
29315;BME280;16320;53.954;9.506;2023-04-09T16:11:07;102204.72;;;13.08;100.00
29315;BME280;16320;53.954;9.506;2023-04-09T16:14:11;102202.97;;;12.85;100.00
29315;BME280;16320;53.954;9.506;2023-04-09T16:17:15;102210.06;;;12.83;100.00
29315;BME280;16320;53.954;9.506;2023-04-09T16:20:20;102206.47;;;13.31;100.00
29315;BME280;16320;53.954;9.506;2023-04-09T16:23:25;102188.22;;;13.49;100.00
29315;BME280;16320;53.954;9.506;2023-04-09T16:26:33;102191.97;;;13.19;100.00